createdAt,value
2018-12-16T00:01:44.079Z,17.83
2018-12-16T00:04:12.533Z,16.80
2018-12-16T00:06:40.971Z,15.57
2018-12-16T00:09:09.421Z,16.60
2018-12-16T00:11:37.868Z,22.47
2018-12-16T00:14:06.502Z,15.33
2018-12-16T00:16:35.841Z,18.43
2018-12-16T00:19:04.497Z,19.77
2018-12-16T00:21:32.969Z,17.33
2018-12-16T00:24:01.430Z,16.27
2018-12-16T00:27:37.168Z,12.80
2018-12-16T00:30:07.255Z,16.63
2018-12-16T00:32:36.150Z,17.17
2018-12-16T00:35:05.686Z,15.83
2018-12-16T00:37:34.171Z,17.00
2018-12-16T00:40:02.804Z,16.33
2018-12-16T00:42:31.354Z,14.70
2018-12-16T00:44:59.742Z,18.67
2018-12-16T00:47:28.152Z,16.73
2018-12-16T00:49:56.565Z,18.07
2018-12-16T00:52:26.097Z,18.27
2018-12-16T00:54:55.532Z,15.80
2018-12-16T00:57:24.093Z,17.90
2018-12-16T00:59:52.764Z,16.23
2018-12-16T01:02:26.741Z,17.37
2018-12-16T01:04:55.193Z,16.77
2018-12-16T01:07:23.588Z,16.50
2018-12-16T01:09:52.128Z,17.40
2018-12-16T01:12:24.387Z,14.50
2018-12-16T01:14:52.773Z,16.17
2018-12-16T01:17:21.229Z,18.23
2018-12-16T01:19:49.665Z,16.60
2018-12-16T01:22:18.205Z,15.47
2018-12-16T01:24:46.582Z,16.50
2018-12-16T01:27:14.996Z,18.50
2018-12-16T01:29:43.501Z,16.50
2018-12-16T01:32:11.916Z,15.87
2018-12-16T01:34:40.366Z,14.07
2018-12-16T01:37:10.634Z,17.10
2018-12-16T01:39:38.997Z,17.90
2018-12-16T01:42:08.008Z,16.43
2018-12-16T01:44:36.420Z,19.67
2018-12-16T01:47:05.101Z,17.40
2018-12-16T01:49:33.556Z,17.40
2018-12-16T01:52:02.036Z,17.93
2018-12-16T01:54:30.445Z,15.87
2018-12-16T01:56:59.129Z,14.80
2018-12-16T01:59:27.581Z,15.97
2018-12-16T02:01:56.227Z,16.17
2018-12-16T02:04:24.859Z,16.67
2018-12-16T02:06:53.508Z,17.87
2018-12-16T02:09:21.963Z,20.10
2018-12-16T02:11:50.551Z,18.57
2018-12-16T02:14:18.990Z,16.90
2018-12-16T02:16:47.659Z,18.23
2018-12-16T02:19:16.080Z,16.60
2018-12-16T02:21:44.677Z,16.73
2018-12-16T02:24:13.223Z,16.77
2018-12-16T02:26:41.587Z,15.27
2018-12-16T02:29:09.968Z,18.17
2018-12-16T02:31:38.336Z,17.00
2018-12-16T02:34:06.797Z,16.70
2018-12-16T02:36:35.165Z,14.87
2018-12-16T02:39:04.030Z,16.80
2018-12-16T02:41:32.540Z,16.50
2018-12-16T02:44:00.920Z,18.47
2018-12-16T02:46:29.443Z,16.33
2018-12-16T02:48:57.881Z,14.23
2018-12-16T02:51:26.363Z,17.23
2018-12-16T02:53:54.756Z,17.37
2018-12-16T02:56:23.149Z,16.57
2018-12-16T02:58:51.541Z,14.77
2018-12-16T03:01:19.957Z,15.33
2018-12-16T03:03:48.369Z,14.57
2018-12-16T03:06:16.852Z,15.67
2018-12-16T03:08:45.236Z,16.67
2018-12-16T03:11:13.644Z,15.23
2018-12-16T03:13:42.037Z,15.70
2018-12-16T03:16:10.495Z,17.10
2018-12-16T03:18:38.960Z,16.33
2018-12-16T03:21:07.396Z,18.13
2018-12-16T03:23:35.786Z,16.40
2018-12-16T03:26:04.299Z,15.93
2018-12-16T03:28:32.755Z,16.97
2018-12-16T03:31:01.433Z,17.23
2018-12-16T03:33:29.917Z,17.97
2018-12-16T03:35:58.289Z,13.57
2018-12-16T03:38:26.668Z,16.37
2018-12-16T03:40:55.079Z,18.17
2018-12-16T03:43:23.569Z,14.97
2018-12-16T03:45:51.950Z,16.73
2018-12-16T03:48:20.430Z,18.03
2018-12-16T03:50:48.870Z,16.83
2018-12-16T03:53:20.081Z,16.40
2018-12-16T03:55:47.694Z,16.23
2018-12-16T03:58:16.097Z,15.13
2018-12-16T04:00:44.474Z,18.03
2018-12-16T04:03:13.009Z,15.20
2018-12-16T04:05:41.473Z,17.07
2018-12-16T04:08:09.866Z,18.30
2018-12-16T04:10:38.641Z,19.27
2018-12-16T04:13:07.044Z,16.50
2018-12-16T04:15:35.688Z,18.03
2018-12-16T04:18:04.209Z,20.50
2018-12-16T04:20:32.636Z,22.30
2018-12-16T04:23:01.116Z,20.77
2018-12-16T04:25:29.677Z,19.00
2018-12-16T04:27:58.145Z,22.67
2018-12-16T04:30:26.604Z,19.33
2018-12-16T04:32:55.378Z,21.60
2018-12-16T04:35:23.920Z,21.20
2018-12-16T04:37:52.339Z,18.73
2018-12-16T04:40:20.736Z,21.13
2018-12-16T04:42:49.160Z,22.27
2018-12-16T04:45:17.546Z,21.97
2018-12-16T04:47:45.955Z,22.43
2018-12-16T04:50:14.326Z,22.27
2018-12-16T04:52:42.737Z,22.10
2018-12-16T04:55:11.382Z,20.77
2018-12-16T04:57:39.781Z,23.33
2018-12-16T05:00:08.513Z,22.70
2018-12-16T05:02:36.918Z,23.27
2018-12-16T05:05:05.701Z,24.33
2018-12-16T05:07:34.143Z,25.20
2018-12-16T05:10:15.279Z,22.60
2018-12-16T05:12:43.705Z,22.63
2018-12-16T05:15:12.078Z,24.53
2018-12-16T05:17:40.561Z,25.57
2018-12-16T05:20:09.040Z,24.83
2018-12-16T05:22:37.461Z,23.43
2018-12-16T05:25:05.869Z,26.20
2018-12-16T05:27:34.249Z,26.27
2018-12-16T05:30:02.810Z,24.90
2018-12-16T05:32:32.755Z,28.60
2018-12-16T05:35:01.484Z,28.67
2018-12-16T05:37:30.062Z,28.77
2018-12-16T05:39:58.578Z,25.23
2018-12-16T05:42:26.979Z,25.37
2018-12-16T05:44:55.408Z,27.97
2018-12-16T05:47:23.811Z,28.97
2018-12-16T05:49:52.529Z,25.93
2018-12-16T05:52:20.925Z,27.50
2018-12-16T05:54:49.320Z,26.60
2018-12-16T05:57:17.687Z,27.00
2018-12-16T05:59:46.110Z,26.03
2018-12-16T06:02:15.124Z,25.33
2018-12-16T06:04:43.590Z,28.70
2018-12-16T06:07:12.002Z,28.10
2018-12-16T06:09:40.626Z,29.87
2018-12-16T06:12:09.031Z,25.60
2018-12-16T06:14:37.432Z,26.20
2018-12-16T06:17:06.181Z,28.40
2018-12-16T06:19:34.666Z,24.63
2018-12-16T06:22:04.164Z,25.80
2018-12-16T06:24:32.630Z,27.17
2018-12-16T06:27:01.052Z,27.23
2018-12-16T06:29:29.452Z,24.90
2018-12-16T06:31:57.856Z,22.27
2018-12-16T06:34:26.530Z,25.23
2018-12-16T06:36:55.036Z,23.90
2018-12-16T06:39:23.437Z,26.07
2018-12-16T06:41:51.813Z,26.47
2018-12-16T06:44:20.212Z,23.50
2018-12-16T06:46:48.616Z,23.23
2018-12-16T06:49:17.001Z,27.53
2018-12-16T06:51:45.487Z,24.40
2018-12-16T06:54:13.869Z,25.87
2018-12-16T06:56:42.907Z,23.33
2018-12-16T06:59:11.314Z,24.97
2018-12-16T07:01:39.712Z,25.63
2018-12-16T07:04:08.130Z,24.83
2018-12-16T07:06:36.546Z,23.23
2018-12-16T07:09:06.823Z,26.63
2018-12-16T07:11:35.217Z,23.00
2018-12-16T07:14:04.193Z,24.33
2018-12-16T07:16:32.590Z,24.97
2018-12-16T07:19:01.072Z,27.83
2018-12-16T07:21:29.525Z,24.33
2018-12-16T07:23:57.894Z,26.67
2018-12-16T07:26:26.254Z,26.20
2018-12-16T07:28:54.644Z,26.10
2018-12-16T07:31:23.113Z,28.53
2018-12-16T07:33:51.929Z,27.83
2018-12-16T07:36:20.348Z,26.33
2018-12-16T07:38:48.868Z,25.50
2018-12-16T07:41:17.336Z,23.73
2018-12-16T07:43:45.899Z,24.83
2018-12-16T07:46:14.409Z,24.00
2018-12-16T07:48:43.081Z,24.30
2018-12-16T07:51:11.594Z,23.80
2018-12-16T07:53:39.988Z,26.97
2018-12-16T07:56:08.375Z,23.87
2018-12-16T07:58:36.720Z,25.27
2018-12-16T08:01:05.127Z,22.30
2018-12-16T08:03:33.556Z,25.63
2018-12-16T08:06:01.971Z,25.23
2018-12-16T08:08:30.353Z,22.20
2018-12-16T08:10:58.768Z,24.30
2018-12-16T08:13:27.143Z,23.83
2018-12-16T08:15:55.799Z,21.90
2018-12-16T08:18:24.135Z,24.33
2018-12-16T08:20:52.508Z,24.40
2018-12-16T08:23:21.126Z,24.23
2018-12-16T08:25:49.580Z,24.87
2018-12-16T08:28:18.024Z,26.67
2018-12-16T08:30:46.437Z,24.07
2018-12-16T08:33:14.867Z,23.17
2018-12-16T08:35:43.284Z,23.70
2018-12-16T08:38:11.778Z,21.90
2018-12-16T08:40:40.180Z,23.13
2018-12-16T08:43:08.571Z,24.40
2018-12-16T08:45:37.089Z,24.97
2018-12-16T08:48:05.652Z,27.10
2018-12-16T08:50:34.157Z,22.73
2018-12-16T08:53:02.542Z,25.63
2018-12-16T08:55:31.220Z,26.23
2018-12-16T08:57:59.736Z,24.03
2018-12-16T09:00:29.762Z,25.70
2018-12-16T09:03:00.246Z,26.07
2018-12-16T09:05:29.737Z,26.47
2018-12-16T09:07:59.558Z,28.90
2018-12-16T09:10:34.099Z,24.77
2018-12-16T09:13:00.314Z,24.50
2018-12-16T09:15:29.323Z,27.83
2018-12-16T09:17:59.121Z,25.33
2018-12-16T09:20:34.668Z,27.60
2018-12-16T09:23:04.664Z,27.53
2018-12-16T09:25:34.132Z,24.03
2018-12-16T09:28:03.364Z,24.67
2018-12-16T09:30:33.565Z,26.57
2018-12-16T09:33:02.350Z,28.97
2018-12-16T09:35:30.749Z,27.60
2018-12-16T09:37:59.145Z,23.00
2018-12-16T09:40:27.601Z,29.37
2018-12-16T09:42:56.606Z,24.23
2018-12-16T09:45:25.019Z,25.70
2018-12-16T09:47:56.697Z,24.33
2018-12-16T09:50:25.197Z,25.20
2018-12-16T09:52:53.616Z,26.07
2018-12-16T09:55:22.064Z,27.60
2018-12-16T09:57:50.521Z,31.23
2018-12-16T10:00:19.128Z,27.93
2018-12-16T10:02:47.619Z,24.93
2018-12-16T10:05:16.019Z,24.73
2018-12-16T10:07:44.606Z,24.57
2018-12-16T10:10:13.614Z,27.83
2018-12-16T10:12:42.659Z,25.27
2018-12-16T10:15:11.043Z,27.80
2018-12-16T10:17:39.586Z,28.53
2018-12-16T10:20:10.247Z,26.40
2018-12-16T10:22:38.652Z,27.50
2018-12-16T10:25:07.273Z,26.50
2018-12-16T10:27:35.653Z,25.70
2018-12-16T10:30:05.435Z,27.83
2018-12-16T10:32:33.865Z,27.07
2018-12-16T10:35:02.488Z,24.87
2018-12-16T10:37:30.920Z,32.00
2018-12-16T10:39:59.301Z,25.67
2018-12-16T10:42:27.708Z,29.67
2018-12-16T10:44:56.080Z,28.50
2018-12-16T10:47:24.485Z,25.83
2018-12-16T10:49:52.846Z,23.27
2018-12-16T10:52:21.232Z,25.53
2018-12-16T10:54:49.608Z,28.53
2018-12-16T10:57:18.072Z,24.30
2018-12-16T10:59:46.456Z,24.83
2018-12-16T11:02:14.900Z,26.50
2018-12-16T11:04:44.183Z,23.33
2018-12-16T11:07:12.619Z,23.77
2018-12-16T11:09:41.792Z,27.20
2018-12-16T11:12:11.131Z,21.73
2018-12-16T11:14:40.489Z,22.17
2018-12-16T11:17:08.932Z,22.13
2018-12-16T11:19:37.338Z,22.83
2018-12-16T11:22:05.772Z,25.63
2018-12-16T11:24:34.138Z,23.33
2018-12-16T11:27:02.607Z,25.37
2018-12-16T11:29:30.956Z,22.57
2018-12-16T11:31:59.337Z,23.30
2018-12-16T11:34:27.688Z,23.80
2018-12-16T11:36:56.499Z,21.50
2018-12-16T11:39:24.898Z,24.67
2018-12-16T11:41:53.285Z,20.50
2018-12-16T11:44:22.151Z,24.83
2018-12-16T11:46:50.572Z,25.17
2018-12-16T11:49:19.016Z,24.73
2018-12-16T11:51:47.736Z,24.03
2018-12-16T11:54:16.273Z,23.83
2018-12-16T11:56:44.667Z,24.03
2018-12-16T11:59:13.032Z,21.77
2018-12-16T12:01:41.411Z,23.30
2018-12-16T12:04:09.830Z,22.60
2018-12-16T12:06:38.324Z,24.43
2018-12-16T12:09:06.852Z,21.17
2018-12-16T12:11:35.359Z,22.07
2018-12-16T12:14:03.857Z,25.00
2018-12-16T12:16:32.291Z,23.37
2018-12-16T12:19:01.634Z,25.67
2018-12-16T12:21:30.177Z,21.93
2018-12-16T12:23:58.736Z,26.60
2018-12-16T12:26:27.777Z,26.93
2018-12-16T12:28:56.429Z,25.13
2018-12-16T12:31:24.903Z,39.50
2018-12-16T12:33:53.548Z,30.00
2018-12-16T12:36:21.909Z,28.40
2018-12-16T12:38:50.297Z,24.50
2018-12-16T12:41:19.599Z,23.03
2018-12-16T12:43:47.978Z,25.80
2018-12-16T12:46:16.336Z,23.23
2018-12-16T12:48:45.112Z,24.40
2018-12-16T12:51:13.640Z,24.30
2018-12-16T12:53:42.125Z,25.03
2018-12-16T12:56:10.588Z,24.67
2018-12-16T12:58:38.953Z,25.97
2018-12-16T13:01:07.434Z,25.57
2018-12-16T13:03:35.848Z,27.83
2018-12-16T13:06:04.858Z,27.17
2018-12-16T13:08:33.247Z,28.33
2018-12-16T13:11:01.797Z,30.63
2018-12-16T13:13:30.300Z,31.30
2018-12-16T13:15:58.760Z,29.87
2018-12-16T13:18:27.184Z,27.63
2018-12-16T13:20:55.602Z,30.93
2018-12-16T13:23:24.001Z,27.80
2018-12-16T13:26:05.556Z,28.27
2018-12-16T13:28:34.075Z,42.77
2018-12-16T13:31:02.606Z,37.10
2018-12-16T13:33:31.028Z,35.70
2018-12-16T13:35:59.406Z,34.77
2018-12-16T13:38:27.816Z,34.63
2018-12-16T13:40:56.315Z,35.27
2018-12-16T13:43:24.827Z,36.03
2018-12-16T13:45:53.276Z,33.60
2018-12-16T13:48:21.789Z,34.87
2018-12-16T13:50:50.196Z,31.33
2018-12-16T13:53:18.795Z,31.50
2018-12-16T13:55:47.188Z,39.33
2018-12-16T13:58:15.560Z,70.63
2018-12-16T14:00:43.950Z,41.77
2018-12-16T14:03:12.512Z,35.53
2018-12-16T14:05:46.594Z,34.20
2018-12-16T14:08:11.276Z,34.60
2018-12-16T14:10:39.829Z,35.87
2018-12-16T14:13:08.281Z,42.33
2018-12-16T14:15:36.713Z,43.27
2018-12-16T14:18:05.107Z,40.67
2018-12-16T14:20:33.505Z,35.13
2018-12-16T14:23:01.873Z,37.63
2018-12-16T14:25:30.361Z,34.27
2018-12-16T14:27:58.969Z,34.17
2018-12-16T14:30:27.352Z,33.57
2018-12-16T14:32:55.861Z,34.63
2018-12-16T14:35:24.616Z,33.30
2018-12-16T14:37:52.996Z,34.33
2018-12-16T14:40:21.464Z,33.87
2018-12-16T14:42:49.919Z,31.30
2018-12-16T14:45:19.020Z,31.07
2018-12-16T14:47:47.720Z,34.70
2018-12-16T14:50:16.305Z,35.13
2018-12-16T14:52:44.736Z,35.33
2018-12-16T14:55:13.152Z,33.77
2018-12-16T14:57:41.677Z,34.40
2018-12-16T15:00:11.836Z,37.77
2018-12-16T15:02:40.327Z,33.77
2018-12-16T15:05:09.595Z,40.57
2018-12-16T15:07:37.957Z,39.47
2018-12-16T15:10:09.205Z,39.63
2018-12-16T15:12:37.684Z,38.43
2018-12-16T15:15:08.324Z,37.50
2018-12-16T15:17:42.703Z,38.57
2018-12-16T15:20:08.572Z,43.13
2018-12-16T15:22:36.985Z,41.57
2018-12-16T15:25:10.528Z,41.33
2018-12-16T15:27:38.938Z,40.27
2018-12-16T15:30:09.581Z,38.50
2018-12-16T15:32:37.995Z,39.80
2018-12-16T15:35:06.807Z,37.10
2018-12-16T15:37:35.220Z,39.83
2018-12-16T15:40:03.974Z,37.87
2018-12-16T15:42:32.383Z,43.43
2018-12-16T15:45:00.748Z,44.93
2018-12-16T15:47:29.144Z,42.07
2018-12-16T15:49:57.529Z,39.80
2018-12-16T15:52:25.936Z,36.93
2018-12-16T15:54:54.319Z,39.40
2018-12-16T15:57:22.696Z,38.30
2018-12-16T15:59:51.125Z,39.73
2018-12-16T16:02:19.542Z,40.03
2018-12-16T16:04:48.179Z,37.13
2018-12-16T16:07:16.568Z,38.77
2018-12-16T16:09:44.957Z,43.37
2018-12-16T16:12:13.509Z,38.97
2018-12-16T16:14:41.932Z,63.63
2018-12-16T16:17:10.360Z,43.47
2018-12-16T16:19:38.820Z,42.77
2018-12-16T16:22:08.381Z,44.00
2018-12-16T16:24:36.865Z,42.77
2018-12-16T16:27:05.270Z,43.00
2018-12-16T16:29:33.660Z,43.70
2018-12-16T16:32:02.101Z,40.10
2018-12-16T16:34:30.549Z,39.30
2018-12-16T16:36:59.452Z,46.13
2018-12-16T16:39:28.708Z,44.07
2018-12-16T16:41:57.180Z,44.17
2018-12-16T16:44:25.734Z,45.87
2018-12-16T16:46:54.141Z,49.83
2018-12-16T16:49:22.580Z,43.73
2018-12-16T16:51:51.036Z,41.90
2018-12-16T16:54:19.436Z,43.80
2018-12-16T16:56:47.856Z,43.40
2018-12-16T16:59:16.271Z,47.77
2018-12-16T17:01:44.709Z,47.47
2018-12-16T17:04:13.137Z,46.57
2018-12-16T17:06:41.662Z,49.33
2018-12-16T17:09:10.057Z,55.37
2018-12-16T17:11:38.428Z,48.97
2018-12-16T17:14:06.848Z,50.13
2018-12-16T17:16:35.372Z,52.53
2018-12-16T17:19:04.149Z,57.77
2018-12-16T17:21:33.076Z,53.63
2018-12-16T17:24:01.480Z,51.40
2018-12-16T17:26:30.385Z,51.20
2018-12-16T17:28:58.961Z,52.83
2018-12-16T17:31:27.358Z,57.30
2018-12-16T17:33:55.796Z,57.27
2018-12-16T17:36:24.399Z,50.17
2018-12-16T17:38:52.832Z,56.60
2018-12-16T17:41:21.236Z,58.30
2018-12-16T17:43:49.663Z,58.60
2018-12-16T17:46:18.124Z,54.00
2018-12-16T17:48:46.540Z,54.70
2018-12-16T17:51:14.933Z,70.67
2018-12-16T17:53:43.537Z,53.57
2018-12-16T17:56:12.052Z,51.77
2018-12-16T17:58:40.704Z,49.17
2018-12-16T18:01:09.437Z,54.83
2018-12-16T18:03:37.870Z,52.57
2018-12-16T18:06:06.321Z,47.20
2018-12-16T18:08:34.885Z,57.90
2018-12-16T18:11:03.350Z,56.57
2018-12-16T18:13:31.852Z,52.27
2018-12-16T18:16:00.557Z,52.00
2018-12-16T18:18:29.168Z,49.47
2018-12-16T18:20:58.331Z,55.77
2018-12-16T18:23:29.801Z,52.03
2018-12-16T18:25:57.341Z,53.13
2018-12-16T18:28:26.240Z,58.83
2018-12-16T18:30:54.668Z,56.17
2018-12-16T18:33:23.741Z,56.87
2018-12-16T18:35:52.148Z,56.13
2018-12-16T18:38:20.644Z,52.00
2018-12-16T18:40:49.213Z,64.10
2018-12-16T18:43:17.773Z,56.23
2018-12-16T18:45:46.390Z,57.77
2018-12-16T18:48:15.181Z,52.93
2018-12-16T18:50:44.168Z,55.67
2018-12-16T18:53:12.600Z,56.17
2018-12-16T18:55:41.407Z,52.13
2018-12-16T18:58:09.800Z,65.63
2018-12-16T19:00:38.540Z,62.80
2018-12-16T19:03:07.301Z,61.37
2018-12-16T19:05:35.740Z,55.13
2018-12-16T19:08:04.178Z,49.37
2018-12-16T19:10:32.960Z,47.27
2018-12-16T19:13:01.499Z,50.53
2018-12-16T19:15:30.040Z,54.43
2018-12-16T19:17:58.712Z,56.00
2018-12-16T19:20:28.833Z,53.77
2018-12-16T19:22:57.460Z,48.80
2018-12-16T19:25:26.243Z,52.53
2018-12-16T19:27:54.835Z,47.23
2018-12-16T19:30:23.526Z,45.33
2018-12-16T19:32:52.369Z,53.67
2018-12-16T19:35:21.921Z,48.53
2018-12-16T19:37:50.709Z,45.80
2018-12-16T19:40:19.217Z,51.40
2018-12-16T19:42:48.170Z,40.13
2018-12-16T19:45:16.718Z,48.93
2018-12-16T19:47:49.498Z,50.10
2018-12-16T19:50:15.874Z,48.83
2018-12-16T19:52:45.093Z,45.13
2018-12-16T19:55:14.308Z,47.97
2018-12-16T19:57:42.839Z,41.97
2018-12-16T20:00:11.466Z,44.20
2018-12-16T20:02:40.462Z,46.83
2018-12-16T20:05:13.741Z,49.33
2018-12-16T20:07:42.340Z,48.23
2018-12-16T20:10:10.895Z,48.33
2018-12-16T20:12:39.514Z,42.47
2018-12-16T20:15:09.082Z,43.17
2018-12-16T20:17:37.845Z,44.70
2018-12-16T20:20:07.548Z,41.73
2018-12-16T20:22:36.094Z,45.07
2018-12-16T20:25:05.244Z,45.97
2018-12-16T20:27:34.312Z,43.80
2018-12-16T20:30:03.816Z,44.33
2018-12-16T20:32:32.609Z,40.90
2018-12-16T20:35:01.801Z,36.67
2018-12-16T20:37:31.470Z,43.63
2018-12-16T20:40:00.073Z,38.97
2018-12-16T20:42:28.636Z,40.97
2018-12-16T20:44:57.262Z,38.73
2018-12-16T20:47:25.988Z,39.57
2018-12-16T20:49:55.277Z,44.67
2018-12-16T20:52:23.897Z,39.07
2018-12-16T20:54:52.481Z,31.90
2018-12-16T20:57:21.045Z,32.50
2018-12-16T20:59:50.818Z,33.53
2018-12-16T21:02:19.525Z,34.20
2018-12-16T21:04:48.084Z,35.20
2018-12-16T21:07:16.707Z,33.93
2018-12-16T21:09:45.228Z,33.53
2018-12-16T21:12:19.144Z,34.17
2018-12-16T21:14:52.939Z,35.03
2018-12-16T21:17:26.764Z,33.43
2018-12-16T21:19:55.433Z,34.20
2018-12-16T21:22:24.232Z,30.23
2018-12-16T21:24:52.821Z,35.50
2018-12-16T21:27:25.982Z,35.07
2018-12-16T21:29:52.421Z,33.20
2018-12-16T21:32:21.087Z,34.23
2018-12-16T21:34:49.729Z,27.77
2018-12-16T21:37:18.739Z,31.20
2018-12-16T21:39:47.524Z,34.43
2018-12-16T21:42:16.085Z,33.40
2018-12-16T21:44:45.834Z,28.10
2018-12-16T21:47:14.346Z,31.20
2018-12-16T21:49:42.813Z,30.80
2018-12-16T21:52:12.529Z,27.20
2018-12-16T21:54:41.695Z,25.33
2018-12-16T21:57:10.312Z,27.77
2018-12-16T21:59:39.322Z,27.13
2018-12-16T22:02:08.503Z,26.73
2018-12-16T22:04:36.974Z,25.83
2018-12-16T22:07:05.809Z,24.50
2018-12-16T22:09:34.501Z,25.50
2018-12-16T22:12:02.998Z,28.80
2018-12-16T22:14:31.480Z,27.60
2018-12-16T22:17:00.567Z,27.77
2018-12-16T22:19:29.014Z,26.50
2018-12-16T22:21:57.484Z,26.90
2018-12-16T22:27:22.234Z,29.87
2018-12-16T22:29:50.613Z,29.83
2018-12-16T22:32:19.133Z,24.37
2018-12-16T22:34:47.525Z,25.33
2018-12-16T22:37:16.237Z,31.17
2018-12-16T22:39:44.775Z,27.63
2018-12-16T22:42:13.151Z,30.43
2018-12-16T22:44:41.835Z,32.77
2018-12-16T22:47:10.289Z,33.03
2018-12-16T22:49:38.744Z,35.53
2018-12-16T22:52:07.228Z,31.80
2018-12-16T22:54:35.588Z,35.83
2018-12-16T22:57:04.219Z,37.50
2018-12-16T22:59:32.613Z,31.23
2018-12-16T23:02:00.978Z,34.17
2018-12-16T23:04:29.558Z,34.23
2018-12-16T23:06:57.956Z,35.90
2018-12-16T23:09:26.469Z,32.87
2018-12-16T23:11:54.897Z,32.93
2018-12-16T23:14:23.297Z,39.43
2018-12-16T23:16:51.942Z,34.13
2018-12-16T23:19:20.361Z,33.13
2018-12-16T23:21:48.740Z,34.87
2018-12-16T23:24:17.274Z,32.93
2018-12-16T23:26:45.698Z,36.23
2018-12-16T23:29:14.140Z,29.03
2018-12-16T23:31:42.504Z,30.67
2018-12-16T23:34:10.962Z,32.10
2018-12-16T23:36:39.338Z,30.27
2018-12-16T23:39:07.765Z,31.57
2018-12-16T23:41:36.156Z,29.30
2018-12-16T23:44:04.828Z,31.87
2018-12-16T23:46:33.202Z,31.30
2018-12-16T23:49:01.602Z,28.50
2018-12-16T23:51:29.978Z,30.83
2018-12-16T23:53:58.370Z,29.43
2018-12-16T23:56:26.766Z,28.33
